Taisho Maru — JI3307 — position and weather

sailwx.info

Track history (hours):
 
Tides and Currents Weather Stations Pressure Air Temp Water Temp Dewpoint Dewpoint Depression Visibility Wind Speed Wind Dir Waves Ship Positions

Taisho Maru

Last reported at 2015-May-14 21:33 UTC. Time now 2015-May-22 17:40 UTC.
Position N 36°40' E 140°55'.

Length 93 m; draft 5.3 m.

Type: Cargo ship. MMSI: 431300084.

Date/timePositionNaut miles runAvg speedWind from/ knotsBaromVisibWave heightAir tempDewpointWater temp
2015-May-14 21:33N 36°40' E 140°55'1312.9
2015-May-14 20:33N 36°27' E 140°55'1312.6
2015-May-14 19:34N 36°15' E 140°56'1313.0
2015-May-14 18:33N 36°02' E 140°57'1513.1
2015-May-14 17:26N 35°47' E 140°58'1112.6
2015-May-14 16:33N 35°36' E 140°55'1414.3
2015-May-14 15:33N 35°25' E 140°44'1514.6
2015-May-14 14:33N 35°13' E 140°34'1514.2
2015-May-14 13:32N 35°02' E 140°23'1414.5
2015-May-14 12:33N 34°56' E 140°07'1513.8
2015-May-14 11:29N 34°50' E 139°51'1112.3
2015-May-14 10:33N 34°57' E 139°40'1312.9
2015-May-14 09:33N 35°09' E 139°45'1111.3
2015-May-14 08:33N 35°20' E 139°43'1212.2
2015-May-14 07:33N 35°30' E 139°52'1111.4
2015-May-14 06:33N 35°40' E 139°59'1 0.9
2015-May-14 05:33N 35°40' E 140°00'0 0.0
2015-May-14 04:30N 35°40' E 140°00'0 0.0
2015-May-14 03:24N 35°40' E 140°00'0 0.0
2015-May-14 02:06N 35°40' E 140°00'0 0.0
2015-May-14 01:33N 35°40' E 140°00'0 0.3
2015-May-14 00:32N 35°40' E 139°60'1010.0
2015-May-13 23:34N 35°31' E 139°54'1110.9
2015-May-13 22:33N 35°26' E 139°43'3 3.5
2015-May-13 21:33N 35°29' E 139°40'0 0.0
2015-May-13 20:28N 35°29' E 139°40'0 0.0
2015-May-13 19:31N 35°29' E 139°40'0 0.0
2015-May-13 18:31N 35°29' E 139°40'0 0.0
2015-May-13 17:31N 35°29' E 139°40'0 0.0
2015-May-13 16:31N 35°29' E 139°40'0 0.0
2015-May-13 15:31N 35°29' E 139°40'0 0.0
2015-May-13 14:31N 35°29' E 139°40'0 0.0
2015-May-13 13:31N 35°29' E 139°40'0 0.0
2015-May-13 12:31N 35°29' E 139°40'0 0.0
2015-May-13 11:31N 35°29' E 139°40'0 0.0
2015-May-13 10:31N 35°29' E 139°40'0 0.0
2015-May-13 09:31N 35°29' E 139°40'0 0.0
2015-May-13 08:31N 35°29' E 139°40'0 0.0
2015-May-13 07:31N 35°29' E 139°40'0 0.0
2015-May-13 06:31N 35°29' E 139°40'0 0.0
2015-May-13 05:31N 35°29' E 139°40'0 0.0
2015-May-13 04:31N 35°29' E 139°40'2 1.9
2015-May-13 03:33N 35°27' E 139°41'9 9.4
2015-May-13 02:33N 35°30' E 139°52'5 4.3
2015-May-13 01:30N 35°34' E 139°54'0 0.0
2015-May-13 00:32N 35°34' E 139°54'0 0.0
2015-May-12 23:31N 35°34' E 139°54'0 0.0
2015-May-12 22:21N 35°34' E 139°54'0 0.1
2015-May-12 21:32N 35°34' E 139°54'0 0.0
2015-May-12 20:31N 35°34' E 139°54'0 0.0
2015-May-12 19:34N 35°34' E 139°54'0 0.0
2015-May-12 18:33N 35°34' E 139°54'0 0.0
2015-May-12 17:33N 35°34' E 139°54'0 0.0
2015-May-12 16:30N 35°34' E 139°54'0 0.1
2015-May-12 15:33N 35°34' E 139°54'0 0.0
2015-May-12 14:33N 35°34' E 139°54'0 0.0
2015-May-12 13:34N 35°34' E 139°54'0 0.0
2015-May-12 12:31N 35°34' E 139°54'0 0.0
2015-May-12 11:31N 35°34' E 139°54'0 0.0
2015-May-12 10:32N 35°34' E 139°54'0 0.0
2015-May-12 09:17N 35°34' E 139°54'0 0.0
2015-May-12 08:31N 35°34' E 139°54'0 0.0
2015-May-12 07:28N 35°34' E 139°54'0 0.0
2015-May-12 06:26N 35°34' E 139°54'0 0.1
2015-May-12 05:32N 35°34' E 139°54'0 0.0
2015-May-12 04:28N 35°34' E 139°54'0 0.0
2015-May-12 03:27N 35°34' E 139°54'0 0.0
2015-May-12 02:33N 35°34' E 139°54'0 0.0
2015-May-12 01:29N 35°34' E 139°54'0 0.0
2015-May-12 00:33N 35°34' E 139°54'0 0.0
2015-May-11 23:33N 35°34' E 139°54'0 0.0
2015-May-11 22:33N 35°34' E 139°54'1 1.5
2015-May-11 21:33N 35°33' E 139°55'1212.5
2015-May-11 20:33N 35°23' E 139°46'1111.3
2015-May-11 19:33N 35°12' E 139°47'1211.9
2015-May-11 18:33N 35°02' E 139°39'23910.8
2015-May-10 20:32N 33°58' E 134°59'1212.5
2015-May-10 19:33N 34°10' E 135°00'7 7.5
2015-May-10 18:34N 34°14' E 135°08'0 0.1
2015-May-10 17:33N 34°14' E 135°08'0 0.0
2015-May-10 16:31N 34°14' E 135°08'0 0.0
2015-May-10 15:31N 34°14' E 135°08'0 0.0
2015-May-10 14:31N 34°14' E 135°08'0 0.0
2015-May-10 13:33N 34°14' E 135°08'5 5.4
2015-May-10 12:33N 34°15' E 135°01'1111.1
2015-May-10 11:33N 34°26' E 135°01'1111.0
2015-May-10 10:33N 34°37' E 134°59'1413.4
2015-May-10 09:31N 34°40' E 134°42'0 0.0
2015-May-09 09:33N 34°40' E 134°43'1212.4
2015-May-09 08:33N 34°37' E 134°57'9 8.9
2015-May-09 07:33N 34°31' E 135°05'1313.4
2015-May-09 06:33N 34°18' E 134°60'1313.1
2015-May-09 05:33N 34°05' E 134°59'17711.0
2015-May-08 13:30N 34°28' E 138°31'5112.7
2015-May-08 09:28N 34°55' E 139°24'1213.3
2015-May-08 08:33N 35°02' E 139°36'1313.2
2015-May-08 07:33N 35°12' E 139°46'1212.1
2015-May-08 06:33N 35°24' E 139°43'1212.4
2015-May-08 05:33N 35°30' E 139°56'3 2.9
2015-May-08 04:33N 35°28' E 139°59'0 0.0
2015-May-08 03:24N 35°28' E 139°59'0 0.0
2015-May-08 02:18N 35°28' E 139°59'0 0.1
2015-May-08 01:30N 35°28' E 139°59'0 0.1
2015-May-08 00:33N 35°28' E 139°59'2 2.0
2015-May-07 23:33N 35°29' E 139°57'1211.6
2015-May-07 22:33N 35°26' E 139°44'4 3.6
2015-May-07 21:33N 35°29' E 139°40'0 0.0
2015-May-07 20:32N 35°29' E 139°40'0 0.0
2015-May-07 19:32N 35°29' E 139°40'0 0.0
2015-May-07 18:32N 35°29' E 139°40'0 0.0
2015-May-07 17:32N 35°29' E 139°40'0 0.0
2015-May-07 16:32N 35°29' E 139°40'0 0.0
2015-May-07 15:32N 35°29' E 139°40'0 0.0
2015-May-07 14:32N 35°29' E 139°40'0 0.0
2015-May-07 13:32N 35°29' E 139°40'0 0.0
2015-May-07 12:32N 35°29' E 139°40'0 0.0
2015-May-07 11:32N 35°29' E 139°40'0 0.0
2015-May-07 10:32N 35°29' E 139°40'0 0.0
2015-May-07 09:32N 35°29' E 139°40'0 0.0
2015-May-07 08:32N 35°29' E 139°40'0 0.0
2015-May-07 07:32N 35°29' E 139°40'0 0.0
2015-May-07 06:32N 35°29' E 139°40'0 0.0
2015-May-07 05:32N 35°29' E 139°40'0 0.0
2015-May-07 04:32N 35°29' E 139°40'0 0.0
2015-May-07 03:29N 35°29' E 139°40'0 0.0
2015-May-07 02:32N 35°29' E 139°40'0 0.0
2015-May-07 01:26N 35°29' E 139°40'0 0.0
2015-May-07 00:32N 35°29' E 139°40'0 0.0
2015-May-06 23:33N 35°29' E 139°40'3 3.4
2015-May-06 22:34N 35°26' E 139°42'1 0.6
2015-May-06 21:32N 35°26' E 139°42'0 0.0
2015-May-06 20:29N 35°26' E 139°42'0 0.0
2015-May-06 19:32N 35°26' E 139°42'0 0.0
2015-May-06 18:32N 35°26' E 139°42'0 0.0
2015-May-06 17:32N 35°26' E 139°42'0 0.0
2015-May-06 16:32N 35°26' E 139°42'0 0.0
2015-May-06 15:32N 35°26' E 139°42'0 0.0
2015-May-06 14:32N 35°26' E 139°42'0 0.1
2015-May-06 13:32N 35°26' E 139°42'0 0.1
2015-May-06 12:32N 35°26' E 139°42'0 0.0
2015-May-06 11:32N 35°26' E 139°42'0 0.0
2015-May-06 10:32N 35°26' E 139°42'0 0.0
2015-May-06 09:32N 35°26' E 139°42'0 0.0
2015-May-06 08:32N 35°26' E 139°42'0 0.0
2015-May-06 07:33N 35°26' E 139°42'0 0.0
2015-May-06 06:33N 35°26' E 139°42'9 8.7
2015-May-06 05:33N 35°17' E 139°45'1211.8
2015-May-06 04:33N 35°06' E 139°44'1712.5
2015-May-06 03:14N 34°55' E 139°28'6212.2
2015-May-05 22:07N 34°27' E 138°21'  
Track history (hours):
 
Tides and Currents Weather Stations Pressure Air Temp Water Temp Dewpoint Dewpoint Depression Visibility Wind Speed Wind Dir Waves Ship Positions

Taisho Maru

Last reported at 2015-May-14 21:33 UTC. Time now 2015-May-22 17:40 UTC.
Position N 36°40' E 140°55'.

Length 93 m; draft 5.3 m.

Type: Cargo ship. MMSI: 431300084.

Date/timePositionNaut miles runAvg speedWind from/ knotsBaromVisibWave heightAir tempDewpointWater temp
2015-May-14 21:33N 36°40' E 140°55'1312.9
2015-May-14 20:33N 36°27' E 140°55'1312.6
2015-May-14 19:34N 36°15' E 140°56'1313.0
2015-May-14 18:33N 36°02' E 140°57'1513.1
2015-May-14 17:26N 35°47' E 140°58'1112.6
2015-May-14 16:33N 35°36' E 140°55'1414.3
2015-May-14 15:33N 35°25' E 140°44'1514.6
2015-May-14 14:33N 35°13' E 140°34'1514.2
2015-May-14 13:32N 35°02' E 140°23'1414.5
2015-May-14 12:33N 34°56' E 140°07'1513.8
2015-May-14 11:29N 34°50' E 139°51'1112.3
2015-May-14 10:33N 34°57' E 139°40'1312.9
2015-May-14 09:33N 35°09' E 139°45'1111.3
2015-May-14 08:33N 35°20' E 139°43'1212.2
2015-May-14 07:33N 35°30' E 139°52'1111.4
2015-May-14 06:33N 35°40' E 139°59'1 0.9
2015-May-14 05:33N 35°40' E 140°00'0 0.0
2015-May-14 04:30N 35°40' E 140°00'0 0.0
2015-May-14 03:24N 35°40' E 140°00'0 0.0
2015-May-14 02:06N 35°40' E 140°00'0 0.0
2015-May-14 01:33N 35°40' E 140°00'0 0.3
2015-May-14 00:32N 35°40' E 139°60'1010.0
2015-May-13 23:34N 35°31' E 139°54'1110.9
2015-May-13 22:33N 35°26' E 139°43'3 3.5
2015-May-13 21:33N 35°29' E 139°40'0 0.0
2015-May-13 20:28N 35°29' E 139°40'0 0.0
2015-May-13 19:31N 35°29' E 139°40'0 0.0
2015-May-13 18:31N 35°29' E 139°40'0 0.0
2015-May-13 17:31N 35°29' E 139°40'0 0.0
2015-May-13 16:31N 35°29' E 139°40'0 0.0
2015-May-13 15:31N 35°29' E 139°40'0 0.0
2015-May-13 14:31N 35°29' E 139°40'0 0.0
2015-May-13 13:31N 35°29' E 139°40'0 0.0
2015-May-13 12:31N 35°29' E 139°40'0 0.0
2015-May-13 11:31N 35°29' E 139°40'0 0.0
2015-May-13 10:31N 35°29' E 139°40'0 0.0
2015-May-13 09:31N 35°29' E 139°40'0 0.0
2015-May-13 08:31N 35°29' E 139°40'0 0.0
2015-May-13 07:31N 35°29' E 139°40'0 0.0
2015-May-13 06:31N 35°29' E 139°40'0 0.0
2015-May-13 05:31N 35°29' E 139°40'0 0.0
2015-May-13 04:31N 35°29' E 139°40'2 1.9
2015-May-13 03:33N 35°27' E 139°41'9 9.4
2015-May-13 02:33N 35°30' E 139°52'5 4.3
2015-May-13 01:30N 35°34' E 139°54'0 0.0
2015-May-13 00:32N 35°34' E 139°54'0 0.0
2015-May-12 23:31N 35°34' E 139°54'0 0.0
2015-May-12 22:21N 35°34' E 139°54'0 0.1
2015-May-12 21:32N 35°34' E 139°54'0 0.0
2015-May-12 20:31N 35°34' E 139°54'0 0.0
2015-May-12 19:34N 35°34' E 139°54'0 0.0
2015-May-12 18:33N 35°34' E 139°54'0 0.0
2015-May-12 17:33N 35°34' E 139°54'0 0.0
2015-May-12 16:30N 35°34' E 139°54'0 0.1
2015-May-12 15:33N 35°34' E 139°54'0 0.0
2015-May-12 14:33N 35°34' E 139°54'0 0.0
2015-May-12 13:34N 35°34' E 139°54'0 0.0
2015-May-12 12:31N 35°34' E 139°54'0 0.0
2015-May-12 11:31N 35°34' E 139°54'0 0.0
2015-May-12 10:32N 35°34' E 139°54'0 0.0
2015-May-12 09:17N 35°34' E 139°54'0 0.0
2015-May-12 08:31N 35°34' E 139°54'0 0.0
2015-May-12 07:28N 35°34' E 139°54'0 0.0
2015-May-12 06:26N 35°34' E 139°54'0 0.1
2015-May-12 05:32N 35°34' E 139°54'0 0.0
2015-May-12 04:28N 35°34' E 139°54'0 0.0
2015-May-12 03:27N 35°34' E 139°54'0 0.0
2015-May-12 02:33N 35°34' E 139°54'0 0.0
2015-May-12 01:29N 35°34' E 139°54'0 0.0
2015-May-12 00:33N 35°34' E 139°54'0 0.0
2015-May-11 23:33N 35°34' E 139°54'0 0.0
2015-May-11 22:33N 35°34' E 139°54'1 1.5
2015-May-11 21:33N 35°33' E 139°55'1212.5
2015-May-11 20:33N 35°23' E 139°46'1111.3
2015-May-11 19:33N 35°12' E 139°47'1211.9
2015-May-11 18:33N 35°02' E 139°39'23910.8
2015-May-10 20:32N 33°58' E 134°59'1212.5
2015-May-10 19:33N 34°10' E 135°00'7 7.5
2015-May-10 18:34N 34°14' E 135°08'0 0.1
2015-May-10 17:33N 34°14' E 135°08'0 0.0
2015-May-10 16:31N 34°14' E 135°08'0 0.0
2015-May-10 15:31N 34°14' E 135°08'0 0.0
2015-May-10 14:31N 34°14' E 135°08'0 0.0
2015-May-10 13:33N 34°14' E 135°08'5 5.4
2015-May-10 12:33N 34°15' E 135°01'1111.1
2015-May-10 11:33N 34°26' E 135°01'1111.0
2015-May-10 10:33N 34°37' E 134°59'1413.4
2015-May-10 09:31N 34°40' E 134°42'0 0.0
2015-May-09 09:33N 34°40' E 134°43'1212.4
2015-May-09 08:33N 34°37' E 134°57'9 8.9
2015-May-09 07:33N 34°31' E 135°05'1313.4
2015-May-09 06:33N 34°18' E 134°60'1313.1
2015-May-09 05:33N 34°05' E 134°59'17711.0
2015-May-08 13:30N 34°28' E 138°31'5112.7
2015-May-08 09:28N 34°55' E 139°24'1213.3
2015-May-08 08:33N 35°02' E 139°36'1313.2
2015-May-08 07:33N 35°12' E 139°46'1212.1
2015-May-08 06:33N 35°24' E 139°43'1212.4
2015-May-08 05:33N 35°30' E 139°56'3 2.9
2015-May-08 04:33N 35°28' E 139°59'0 0.0
2015-May-08 03:24N 35°28' E 139°59'0 0.0
2015-May-08 02:18N 35°28' E 139°59'0 0.1
2015-May-08 01:30N 35°28' E 139°59'0 0.1
2015-May-08 00:33N 35°28' E 139°59'2 2.0
2015-May-07 23:33N 35°29' E 139°57'1211.6
2015-May-07 22:33N 35°26' E 139°44'4 3.6
2015-May-07 21:33N 35°29' E 139°40'0 0.0
2015-May-07 20:32N 35°29' E 139°40'0 0.0
2015-May-07 19:32N 35°29' E 139°40'0 0.0
2015-May-07 18:32N 35°29' E 139°40'0 0.0
2015-May-07 17:32N 35°29' E 139°40'0 0.0
2015-May-07 16:32N 35°29' E 139°40'0 0.0
2015-May-07 15:32N 35°29' E 139°40'0 0.0
2015-May-07 14:32N 35°29' E 139°40'0 0.0
2015-May-07 13:32N 35°29' E 139°40'0 0.0
2015-May-07 12:32N 35°29' E 139°40'0 0.0
2015-May-07 11:32N 35°29' E 139°40'0 0.0
2015-May-07 10:32N 35°29' E 139°40'0 0.0
2015-May-07 09:32N 35°29' E 139°40'0 0.0
2015-May-07 08:32N 35°29' E 139°40'0 0.0
2015-May-07 07:32N 35°29' E 139°40'0 0.0
2015-May-07 06:32N 35°29' E 139°40'0 0.0
2015-May-07 05:32N 35°29' E 139°40'0 0.0
2015-May-07 04:32N 35°29' E 139°40'0 0.0
2015-May-07 03:29N 35°29' E 139°40'0 0.0
2015-May-07 02:32N 35°29' E 139°40'0 0.0
2015-May-07 01:26N 35°29' E 139°40'0 0.0
2015-May-07 00:32N 35°29' E 139°40'0 0.0
2015-May-06 23:33N 35°29' E 139°40'3 3.4
2015-May-06 22:34N 35°26' E 139°42'1 0.6
2015-May-06 21:32N 35°26' E 139°42'0 0.0
2015-May-06 20:29N 35°26' E 139°42'0 0.0
2015-May-06 19:32N 35°26' E 139°42'0 0.0
2015-May-06 18:32N 35°26' E 139°42'0 0.0
2015-May-06 17:32N 35°26' E 139°42'0 0.0
2015-May-06 16:32N 35°26' E 139°42'0 0.0
2015-May-06 15:32N 35°26' E 139°42'0 0.0
2015-May-06 14:32N 35°26' E 139°42'0 0.1
2015-May-06 13:32N 35°26' E 139°42'0 0.1
2015-May-06 12:32N 35°26' E 139°42'0 0.0
2015-May-06 11:32N 35°26' E 139°42'0 0.0
2015-May-06 10:32N 35°26' E 139°42'0 0.0
2015-May-06 09:32N 35°26' E 139°42'0 0.0
2015-May-06 08:32N 35°26' E 139°42'0 0.0
2015-May-06 07:33N 35°26' E 139°42'0 0.0
2015-May-06 06:33N 35°26' E 139°42'9 8.7
2015-May-06 05:33N 35°17' E 139°45'1211.8
2015-May-06 04:33N 35°06' E 139°44'1712.5
2015-May-06 03:14N 34°55' E 139°28'6212.2
2015-May-05 22:07N 34°27' E 138°21'  

Dump ship's entire track history